Terminal Aerodrome Forecast
Issued by NWS Wakefield, VA

Home | Current Version | Previous Version | Text Only | Print | Product List | Glossary On
Versions: 1 2 3 4 5 6 7 8 9 10 11 12 13 14 15 16 17 18 19 20 21 22 23 24 25 26 27 28 29
740
FTUS41 KAKQ 241120
TAFORF
TAF
KORF 241120Z 2412/2512 04010KT P6SM OVC007
     FM241600 07008KT P6SM OVC008
     FM242100 10010KT P6SM OVC010
     FM250000 11011KT P6SM -SHRA OVC015
     FM250500 15011KT P6SM -SHRA OVC010=

USA.gov is the U.S. government's official web portal to all federal, state and local government web resources and services.